createdAt,value
2023-05-02T00:02:15.085Z,102257.64
2023-05-02T00:26:34.536Z,102273.29
2023-05-02T00:29:21.388Z,102275.34
2023-05-02T00:37:04.828Z,102275.26
2023-05-02T00:40:08.305Z,102277.65
2023-05-02T00:42:55.291Z,102273.71
2023-05-02T00:45:49.189Z,102280.36
2023-05-02T00:48:37.822Z,102282.24
2023-05-02T00:51:24.927Z,102284.86
2023-05-02T00:54:13.681Z,102285.70
2023-05-02T00:57:00.573Z,102283.52
2023-05-02T00:59:47.576Z,102281.73
2023-05-02T01:02:58.752Z,102283.61
2023-05-02T01:06:00.005Z,102286.75
2023-05-02T01:09:00.910Z,102284.63
2023-05-02T01:12:11.186Z,102286.90
2023-05-02T01:14:59.780Z,102284.17
2023-05-02T01:17:49.723Z,102286.48
2023-05-02T01:20:41.312Z,102291.13
2023-05-02T01:24:05.727Z,102291.33
2023-05-02T01:27:36.698Z,102287.64
2023-05-02T01:30:28.765Z,102288.89
2023-05-02T01:33:18.511Z,102290.28
2023-05-02T01:36:07.647Z,102285.29
2023-05-02T01:38:57.103Z,102285.33
2023-05-02T01:41:45.247Z,102284.90
2023-05-02T01:44:34.443Z,102289.24
2023-05-02T01:47:24.443Z,102286.89
2023-05-02T01:50:16.983Z,102289.98
2023-05-02T01:53:05.134Z,102283.94
2023-05-02T01:55:54.204Z,102289.15
2023-05-02T01:58:42.176Z,102288.39
2023-05-02T02:01:31.372Z,102287.30
2023-05-02T02:04:22.321Z,102289.70
2023-05-02T02:07:13.146Z,102285.07
2023-05-02T02:10:00.888Z,102288.52
2023-05-02T02:13:26.261Z,102289.89
2023-05-02T02:16:19.554Z,102291.73
2023-05-02T02:19:13.295Z,102295.70
2023-05-02T02:22:01.115Z,102293.94
2023-05-02T02:24:48.682Z,102295.00
2023-05-02T02:27:37.481Z,102296.71
2023-05-02T02:30:24.393Z,102294.52
2023-05-02T02:33:10.999Z,102296.40
2023-05-02T02:36:25.125Z,102300.92
2023-05-02T02:39:31.236Z,102306.38
2023-05-02T02:42:40.226Z,102308.05
2023-05-02T02:45:41.006Z,102305.54
2023-05-02T02:49:15.605Z,102308.54
2023-05-02T02:52:05.338Z,102308.50
2023-05-02T02:54:59.748Z,102305.20
2023-05-02T02:58:02.629Z,102307.07
2023-05-02T03:00:50.521Z,102306.27
2023-05-02T03:03:40.029Z,102308.64
2023-05-02T03:06:27.565Z,102311.30
2023-05-02T03:09:18.811Z,102312.04
2023-05-02T03:12:06.370Z,102312.98
2023-05-02T03:15:02.959Z,102316.20
2023-05-02T03:17:50.037Z,102315.23
2023-05-02T03:20:36.921Z,102316.05
2023-05-02T03:23:24.999Z,102318.58
2023-05-02T03:26:11.929Z,102323.70
2023-05-02T03:29:00.301Z,102323.55
2023-05-02T03:31:51.176Z,102329.76
2023-05-02T03:34:39.028Z,102329.96
2023-05-02T03:37:26.036Z,102334.59
2023-05-02T03:40:16.110Z,102332.91
2023-05-02T03:43:04.334Z,102342.15
2023-05-02T03:45:51.936Z,102346.71
2023-05-02T03:48:39.518Z,102352.30
2023-05-02T03:51:27.069Z,102351.73
2023-05-02T03:54:14.589Z,102357.21
2023-05-02T03:57:04.897Z,102357.02
2023-05-02T03:59:52.428Z,102362.64
2023-05-02T04:02:43.808Z,102367.38
2023-05-02T04:05:33.831Z,102369.42
2023-05-02T04:08:21.440Z,102372.00
2023-05-02T04:11:08.769Z,102374.45
2023-05-02T04:13:55.728Z,102377.77
2023-05-02T04:16:48.468Z,102381.80
2023-05-02T04:19:36.037Z,102383.73
2023-05-02T04:22:23.430Z,102387.03
2023-05-02T04:25:14.214Z,102389.98
2023-05-02T04:28:03.759Z,102388.85
2023-05-02T04:30:51.142Z,102391.08
2023-05-02T04:33:43.380Z,102392.39
2023-05-02T04:36:31.960Z,102393.55
2023-05-02T04:39:18.966Z,102393.80
2023-05-02T04:42:15.351Z,102396.54
2023-05-02T04:45:10.294Z,102393.42
2023-05-02T04:47:57.831Z,102397.73
2023-05-02T04:50:46.414Z,102399.55
2023-05-02T04:53:33.655Z,102403.70
2023-05-02T04:56:22.877Z,102404.62
2023-05-02T04:59:12.210Z,102403.23
2023-05-02T05:01:59.748Z,102402.92
2023-05-02T05:04:48.381Z,102408.42
2023-05-02T05:07:38.293Z,102413.04
2023-05-02T05:10:26.052Z,102414.11
2023-05-02T05:13:14.048Z,102414.82
2023-05-02T05:16:10.679Z,102417.83
2023-05-02T05:19:16.291Z,102415.51
2023-05-02T05:22:03.327Z,102420.11
2023-05-02T05:24:57.479Z,102422.71
2023-05-02T05:27:52.993Z,102423.03
2023-05-02T05:30:46.090Z,102430.26
2023-05-02T05:33:39.398Z,102430.56
2023-05-02T05:36:31.782Z,102439.91
2023-05-02T05:39:18.570Z,102438.61
2023-05-02T05:42:10.256Z,102438.18
2023-05-02T05:50:18.546Z,102445.11
2023-05-02T05:53:06.662Z,102447.87
2023-05-02T05:55:55.017Z,102449.76
2023-05-02T05:58:45.392Z,102445.21
2023-05-02T06:01:34.472Z,102448.32
2023-05-02T06:04:23.038Z,102448.02
2023-05-02T06:07:13.749Z,102453.77
2023-05-02T06:10:01.094Z,102453.64
2023-05-02T06:12:49.744Z,102455.98
2023-05-02T06:15:38.581Z,102454.61
2023-05-02T06:18:26.596Z,102453.39
2023-05-02T06:21:14.586Z,102453.58
2023-05-02T06:24:01.649Z,102460.55
2023-05-02T06:26:48.713Z,102465.08
2023-05-02T06:29:35.836Z,102467.14
2023-05-02T06:32:22.896Z,102467.52
2023-05-02T06:35:12.267Z,102464.39
2023-05-02T06:37:58.932Z,102468.55
2023-05-02T06:40:45.652Z,102472.63
2023-05-02T06:43:33.985Z,102473.14
2023-05-02T06:46:21.240Z,102475.19
2023-05-02T06:49:09.736Z,102477.92
2023-05-02T06:51:56.799Z,102479.43
2023-05-02T06:54:44.850Z,102477.35
2023-05-02T06:57:31.653Z,102480.60
2023-05-02T07:00:22.967Z,102478.67
2023-05-02T07:03:11.471Z,102482.70
2023-05-02T07:05:58.767Z,102488.14
2023-05-02T07:08:46.169Z,102488.73
2023-05-02T07:11:33.968Z,102492.17
2023-05-02T07:14:22.339Z,102496.64
2023-05-02T07:17:10.038Z,102496.48
2023-05-02T07:19:56.757Z,102498.11
2023-05-02T07:22:46.374Z,102492.90
2023-05-02T07:25:33.786Z,102490.08
2023-05-02T07:28:20.684Z,102489.31
2023-05-02T07:31:07.916Z,102487.58
2023-05-02T07:33:54.592Z,102487.55
2023-05-02T07:36:41.491Z,102494.67
2023-05-02T07:39:28.222Z,102497.68
2023-05-02T07:42:15.384Z,102500.47
2023-05-02T07:45:02.638Z,102504.33
2023-05-02T07:47:49.598Z,102505.27
2023-05-02T07:50:39.839Z,102504.14
2023-05-02T07:53:26.792Z,102509.69
2023-05-02T07:56:15.328Z,102513.35
2023-05-02T07:59:03.638Z,102513.66
2023-05-02T08:01:52.027Z,102520.16
2023-05-02T08:04:41.137Z,102524.98
2023-05-02T08:07:37.618Z,102530.05
2023-05-02T08:10:24.516Z,102534.05
2023-05-02T08:13:12.538Z,102537.53
2023-05-02T08:16:02.115Z,102537.74
2023-05-02T08:18:49.223Z,102542.12
2023-05-02T08:21:38.611Z,102546.52
2023-05-02T08:24:26.934Z,102545.34
2023-05-02T08:27:16.141Z,102542.91
2023-05-02T08:30:04.911Z,102542.48
2023-05-02T08:32:51.937Z,102543.66
2023-05-02T08:35:38.763Z,102540.57
2023-05-02T08:38:25.447Z,102539.64
2023-05-02T08:41:19.451Z,102533.45
2023-05-02T08:44:15.476Z,102530.25
2023-05-02T08:47:04.411Z,102526.63
2023-05-02T08:49:56.765Z,102524.95
2023-05-02T08:52:47.112Z,102525.47
2023-05-02T08:55:39.863Z,102528.06
2023-05-02T08:58:26.984Z,102528.36
2023-05-02T09:01:17.390Z,102529.27
2023-05-02T09:04:05.119Z,102527.93
2023-05-02T09:06:53.213Z,102528.96
2023-05-02T09:09:40.314Z,102534.53
2023-05-02T09:15:59.347Z,102534.45
2023-05-02T09:18:51.757Z,102535.83
2023-05-02T09:29:41.029Z,102537.36
2023-05-02T09:32:52.112Z,102534.85
2023-05-02T09:36:37.848Z,102534.80
2023-05-02T09:40:09.534Z,102532.77
2023-05-02T09:42:57.926Z,102532.63
2023-05-02T09:46:03.621Z,102534.30
2023-05-02T09:49:27.643Z,102536.57
2023-05-02T09:52:36.334Z,102535.29
2023-05-02T09:55:23.266Z,102536.12
2023-05-02T09:58:24.287Z,102536.92
2023-05-02T10:01:21.764Z,102536.65
2023-05-02T10:04:18.987Z,102539.00
2023-05-02T10:07:06.850Z,102540.11
2023-05-02T10:09:58.657Z,102537.85
2023-05-02T10:12:52.924Z,102537.88
2023-05-02T10:19:45.507Z,102541.57
2023-05-02T10:22:39.288Z,102540.08
2023-05-02T10:25:26.305Z,102540.55
2023-05-02T10:28:14.572Z,102541.12
2023-05-02T10:31:03.285Z,102541.73
2023-05-02T10:38:43.767Z,102533.70
2023-05-02T10:45:36.950Z,102539.27
2023-05-02T10:48:42.231Z,102534.84
2023-05-02T10:51:44.432Z,102528.74
2023-05-02T10:54:31.085Z,102531.91
2023-05-02T10:57:18.119Z,102532.86
2023-05-02T11:04:06.681Z,102531.13
2023-05-02T11:06:59.634Z,102530.96
2023-05-02T11:09:51.198Z,102534.15
2023-05-02T11:12:49.386Z,102527.02
2023-05-02T11:15:42.813Z,102520.63
2023-05-02T11:18:59.555Z,102518.73
2023-05-02T11:21:51.370Z,102518.10
2023-05-02T11:24:44.972Z,102522.23
2023-05-02T11:27:38.589Z,102526.30
2023-05-02T11:30:40.170Z,102525.38
2023-05-02T11:33:28.992Z,102529.38
2023-05-02T11:36:32.622Z,102529.64
2023-05-02T11:39:21.322Z,102525.39
2023-05-02T11:42:08.305Z,102523.94
2023-05-02T11:44:59.726Z,102520.63
2023-05-02T11:47:49.041Z,102519.83
2023-05-02T11:51:03.556Z,102522.91
2023-05-02T11:53:53.268Z,102521.66
2023-05-02T11:56:40.837Z,102521.42
2023-05-02T11:59:28.185Z,102526.45
2023-05-02T12:02:16.575Z,102528.29
2023-05-02T12:05:06.343Z,102526.89
2023-05-02T12:07:53.752Z,102529.86
2023-05-02T12:10:40.809Z,102526.91
2023-05-02T12:13:31.750Z,102528.92
2023-05-02T12:16:20.360Z,102530.27
2023-05-02T12:19:07.782Z,102526.69
2023-05-02T12:21:55.649Z,102524.76
2023-05-02T12:24:43.722Z,102526.39
2023-05-02T12:27:30.480Z,102529.13
2023-05-02T12:30:28.556Z,102526.67
2023-05-02T12:33:17.439Z,102527.19
2023-05-02T12:36:08.459Z,102522.75
2023-05-02T12:38:59.939Z,102517.95
2023-05-02T12:41:48.490Z,102509.33
2023-05-02T12:44:43.301Z,102504.11
2023-05-02T12:47:30.158Z,102502.55
2023-05-02T12:50:17.051Z,102504.00
2023-05-02T12:53:04.063Z,102503.33
2023-05-02T12:56:02.748Z,102505.63
2023-05-02T12:58:49.529Z,102502.11
2023-05-02T13:01:36.413Z,102499.57
2023-05-02T13:04:41.411Z,102503.74
2023-05-02T13:07:28.945Z,102503.56
2023-05-02T13:10:18.262Z,102501.55
2023-05-02T13:13:05.706Z,102501.29
2023-05-02T13:15:52.611Z,102501.85
2023-05-02T13:18:39.793Z,102505.29
2023-05-02T13:21:27.099Z,102505.02
2023-05-02T13:24:15.011Z,102504.95
2023-05-02T13:27:02.239Z,102504.95
2023-05-02T13:29:52.889Z,102502.02
2023-05-02T13:32:42.719Z,102506.39
2023-05-02T13:35:29.501Z,102505.39
2023-05-02T13:38:16.364Z,102507.23
2023-05-02T13:41:03.195Z,102506.27
2023-05-02T13:43:51.091Z,102505.28
2023-05-02T13:46:39.520Z,102506.44
2023-05-02T13:49:26.831Z,102504.79
2023-05-02T13:52:13.651Z,102507.04
2023-05-02T13:55:00.478Z,102505.54
2023-05-02T13:57:47.698Z,102502.68
2023-05-02T14:00:34.722Z,102500.14
2023-05-02T14:03:22.530Z,102501.56
2023-05-02T14:06:09.484Z,102501.80
2023-05-02T14:08:56.370Z,102498.73
2023-05-02T14:11:44.498Z,102497.55
2023-05-02T14:14:31.709Z,102500.19
2023-05-02T14:17:18.470Z,102501.70
2023-05-02T14:20:07.255Z,102505.11
2023-05-02T14:22:56.682Z,102504.66
2023-05-02T14:25:43.669Z,102505.25
2023-05-02T14:28:32.382Z,102506.70
2023-05-02T14:31:20.723Z,102509.02
2023-05-02T14:34:09.067Z,102508.38
2023-05-02T14:36:56.166Z,102504.55
2023-05-02T14:39:47.448Z,102504.67
2023-05-02T14:42:35.280Z,102509.35
2023-05-02T14:45:22.408Z,102508.67
2023-05-02T14:48:10.977Z,102506.72
2023-05-02T14:51:01.525Z,102509.35
2023-05-02T14:53:49.219Z,102509.19
2023-05-02T14:56:36.244Z,102509.61
2023-05-02T14:59:23.371Z,102506.10
2023-05-02T15:02:11.307Z,102501.80
2023-05-02T15:04:58.270Z,102494.73
2023-05-02T15:07:45.095Z,102497.73
2023-05-02T15:10:34.640Z,102497.25
2023-05-02T15:13:22.017Z,102497.14
2023-05-02T15:16:10.841Z,102497.92
2023-05-02T15:18:57.747Z,102499.35
2023-05-02T15:21:46.006Z,102500.48
2023-05-02T15:24:34.199Z,102499.20
2023-05-02T15:27:28.429Z,102496.56
2023-05-02T15:30:17.853Z,102494.16
2023-05-02T15:33:05.721Z,102491.81
2023-05-02T15:35:58.645Z,102489.45
2023-05-02T15:38:45.611Z,102490.98
2023-05-02T15:41:32.734Z,102490.98
2023-05-02T15:44:19.613Z,102489.34
2023-05-02T15:47:06.624Z,102493.24
2023-05-02T15:49:55.110Z,102494.55
2023-05-02T15:52:42.078Z,102497.33
2023-05-02T15:55:30.731Z,102502.80
2023-05-02T15:58:19.862Z,102502.98
2023-05-02T16:01:08.651Z,102499.64
2023-05-02T16:03:56.437Z,102497.52
2023-05-02T16:06:43.375Z,102498.85
2023-05-02T16:09:31.324Z,102498.39
2023-05-02T16:12:18.704Z,102497.69
2023-05-02T16:15:06.459Z,102496.70
2023-05-02T16:17:53.319Z,102495.02
2023-05-02T16:20:52.368Z,102495.25
2023-05-02T16:23:39.252Z,102501.11
2023-05-02T16:29:13.214Z,102500.78
2023-05-02T16:32:00.405Z,102497.61
2023-05-02T16:34:47.385Z,102498.82
2023-05-02T16:37:35.937Z,102498.02
2023-05-02T16:40:22.846Z,102499.11
2023-05-02T16:43:09.808Z,102500.27
2023-05-02T16:46:04.353Z,102502.07
2023-05-02T16:48:51.216Z,102499.26
2023-05-02T16:51:39.591Z,102495.32
2023-05-02T16:54:26.776Z,102498.56
2023-05-02T16:57:18.481Z,102493.44
2023-05-02T17:00:08.302Z,102494.59
2023-05-02T17:02:57.141Z,102492.06
2023-05-02T17:05:43.919Z,102496.29
2023-05-02T17:08:30.767Z,102494.05
2023-05-02T17:11:18.427Z,102496.22
2023-05-02T17:14:05.590Z,102496.73
2023-05-02T17:16:52.724Z,102497.98
2023-05-02T17:19:39.696Z,102498.85
2023-05-02T17:22:27.168Z,102504.84
2023-05-02T17:25:14.557Z,102505.65
2023-05-02T17:28:01.948Z,102509.48
2023-05-02T17:30:48.896Z,102508.88
2023-05-02T17:33:36.140Z,102507.70
2023-05-02T17:36:25.651Z,102501.56
2023-05-02T17:39:13.831Z,102503.05
2023-05-02T17:42:01.272Z,102503.06
2023-05-02T17:44:49.671Z,102502.56
2023-05-02T17:47:37.245Z,102506.50
2023-05-02T17:50:24.321Z,102513.61
2023-05-02T17:53:11.495Z,102516.15
2023-05-02T17:55:58.350Z,102522.05
2023-05-02T17:58:47.312Z,102529.91
2023-05-02T18:01:33.808Z,102535.30
2023-05-02T18:04:20.654Z,102543.31
2023-05-02T18:07:08.283Z,102546.36
2023-05-02T18:09:55.602Z,102552.23
2023-05-02T18:12:42.668Z,102550.48
2023-05-02T18:15:31.084Z,102549.56
2023-05-02T18:18:18.714Z,102547.39
2023-05-02T18:21:06.325Z,102549.14
2023-05-02T18:23:53.253Z,102547.84
2023-05-02T18:26:40.481Z,102551.34
2023-05-02T18:29:27.039Z,102558.04
2023-05-02T18:32:16.851Z,102562.59
2023-05-02T18:35:10.957Z,102568.94
2023-05-02T18:37:57.949Z,102566.59
2023-05-02T18:40:44.718Z,102565.86
2023-05-02T18:43:33.632Z,102563.35
2023-05-02T18:46:20.128Z,102569.18
2023-05-02T18:49:09.376Z,102572.37
2023-05-02T18:51:56.722Z,102575.55
2023-05-02T18:54:43.425Z,102566.35
2023-05-02T18:57:30.057Z,102560.52
2023-05-02T19:03:30.824Z,102559.52
2023-05-02T19:06:18.893Z,102563.93
2023-05-02T19:09:05.924Z,102567.84
2023-05-02T19:11:55.115Z,102568.68
2023-05-02T19:14:42.182Z,102564.41
2023-05-02T19:20:40.228Z,102571.14
2023-05-02T19:23:27.033Z,102573.38
2023-05-02T19:26:15.539Z,102577.05
2023-05-02T19:29:03.223Z,102580.40
2023-05-02T19:31:50.209Z,102578.43
2023-05-02T19:34:37.318Z,102579.98
2023-05-02T19:37:25.461Z,102579.41
2023-05-02T19:40:13.165Z,102576.15
2023-05-02T19:43:00.050Z,102575.58
2023-05-02T19:45:46.704Z,102577.79
2023-05-02T19:48:33.367Z,102579.30
2023-05-02T19:51:33.976Z,102586.86
2023-05-02T19:54:23.226Z,102589.54
2023-05-02T19:57:10.060Z,102589.81
2023-05-02T19:59:56.900Z,102585.77
2023-05-02T20:02:44.655Z,102584.69
2023-05-02T20:05:32.742Z,102584.36
2023-05-02T20:08:21.458Z,102584.36
2023-05-02T20:11:09.035Z,102581.52
2023-05-02T20:13:55.972Z,102577.29
2023-05-02T20:16:42.678Z,102575.48
2023-05-02T20:19:32.275Z,102575.27
2023-05-02T20:22:19.285Z,102574.89
2023-05-02T20:25:09.924Z,102570.03
2023-05-02T20:27:56.453Z,102568.02
2023-05-02T20:30:44.273Z,102563.73
2023-05-02T20:33:43.696Z,102565.14
2023-05-02T20:36:32.520Z,102572.39
2023-05-02T20:39:23.773Z,102569.60
2023-05-02T20:42:11.616Z,102573.17
2023-05-02T20:45:00.049Z,102570.87
2023-05-02T20:47:47.388Z,102563.98
2023-05-02T20:50:34.777Z,102563.14
2023-05-02T20:53:23.947Z,102561.98
2023-05-02T20:56:10.802Z,102559.06
2023-05-02T20:58:57.270Z,102557.28
2023-05-02T21:01:44.000Z,102552.96
2023-05-02T21:04:31.223Z,102545.77
2023-05-02T21:07:18.319Z,102543.41
2023-05-02T21:10:08.103Z,102541.89
2023-05-02T21:12:55.027Z,102543.84
2023-05-02T21:15:42.183Z,102547.28
2023-05-02T21:18:28.729Z,102541.83
2023-05-02T21:21:16.731Z,102541.23
2023-05-02T21:24:06.654Z,102537.09
2023-05-02T21:26:53.820Z,102534.29
2023-05-02T21:29:40.789Z,102530.34
2023-05-02T21:32:27.868Z,102528.55
2023-05-02T21:35:14.790Z,102525.39
2023-05-02T21:38:02.580Z,102525.36
2023-05-02T21:40:49.694Z,102525.11
2023-05-02T21:43:39.838Z,102524.95
2023-05-02T21:46:26.781Z,102521.09
2023-05-02T21:49:14.056Z,102520.73
2023-05-02T21:52:01.169Z,102515.29
2023-05-02T21:54:50.172Z,102521.80
2023-05-02T21:57:37.084Z,102520.40
2023-05-02T22:00:24.431Z,102526.09
2023-05-02T22:03:13.749Z,102526.23
2023-05-02T22:06:06.402Z,102529.88
2023-05-02T22:08:53.867Z,102533.04
2023-05-02T22:11:40.921Z,102536.16
2023-05-02T22:14:37.571Z,102535.98
2023-05-02T22:17:32.905Z,102535.48
2023-05-02T22:20:20.018Z,102536.12
2023-05-02T22:23:07.449Z,102539.20
2023-05-02T22:25:54.388Z,102539.56
2023-05-02T22:28:41.316Z,102544.28
2023-05-02T22:31:28.743Z,102541.94
2023-05-02T22:34:15.800Z,102542.77
2023-05-02T22:37:02.760Z,102551.08
2023-05-02T22:39:49.830Z,102552.16
2023-05-02T22:42:36.653Z,102558.25
2023-05-02T22:45:23.809Z,102558.25
2023-05-02T22:48:10.827Z,102553.16
2023-05-02T22:50:57.947Z,102546.47
2023-05-02T22:53:44.511Z,102547.45
2023-05-02T22:56:31.591Z,102556.92
2023-05-02T22:59:18.676Z,102558.64
2023-05-02T23:02:05.482Z,102553.15
2023-05-02T23:04:52.510Z,102548.11
2023-05-02T23:07:39.356Z,102548.77
2023-05-02T23:10:26.390Z,102545.84
2023-05-02T23:13:13.334Z,102542.55
2023-05-02T23:16:00.458Z,102535.62
2023-05-02T23:18:47.665Z,102536.51
2023-05-02T23:21:34.673Z,102534.66
2023-05-02T23:24:21.793Z,102529.81
2023-05-02T23:27:09.888Z,102528.56
2023-05-02T23:29:56.464Z,102527.11
2023-05-02T23:32:43.287Z,102528.73
2023-05-02T23:35:32.088Z,102524.51
2023-05-02T23:38:19.009Z,102530.37
2023-05-02T23:41:05.969Z,102532.80
2023-05-02T23:43:52.741Z,102532.80
2023-05-02T23:46:39.244Z,102527.79
2023-05-02T23:49:28.092Z,102531.13
2023-05-02T23:52:15.240Z,102530.13
2023-05-02T23:55:02.576Z,102532.71
2023-05-02T23:57:49.391Z,102531.73
